Airfield :
LOGIN :

Register | Disclaimer

   EN    FR    IT 

 










Legend :    VFR   Marginal VFR   IFR   Intensive IFR   Very Intensive IFR
Visi :
Ceiling :
>= 8 km
>= 3000ft
5 to 8 km
1000 to 3000 ft
1500m to 5 km
500 to 1000 ft
800 to 1500m
200 to 500 ft
< 800m
< 200 ft
Symbols :   Thunderstorms  Fog  Heavy snow  Heavy precipitations  Wind > 20 kt
SIGMETs :     Misc.  Thunderstorms  Icing  Turbulence  Mountain Waves  Volcanic Ashes







- Airport Elevation : 1947 ft
- IATA code : OBF


EDMO - Oberpfaffenhofen

CURRENT METAR :
  • 221150Z 07015KT 7000 BKN017 M04/M06 Q1013

EXPIRED METARs :
  • 221120Z 06012KT 7000 BKN014 BKN019 M04/M06 Q1013
  • 221050Z 06010KT 030V090 5000 -SN BR BKN013 BKN019 M04/M06 Q1013
  • 221020Z 06013KT 5000 -SN BR BKN012 BKN018 M04/M06 Q1013
  • 220950Z 05013KT 010V080 5000 -SN BR BKN013 BKN020 M04/M06 Q1013
  • 220920Z 05012KT 5000 -SN BR BKN013 M04/M06 Q1013

TAF TAF EDMO
Valid from the 22 at 12:00 until the 22 at 21:00 UTC


221100Z 2212/2221 06013G25KT 6000 BKN015
TEMPO 2212/2221 3500 -SN DRSN BKN010
BECMG 2216/2218 05012KT
No reported NOTAMs for that airfield.



MET'MAP, your aeronautical weather chart ! - Copyright ORBIFLY December 2007 - Disclaimer

ORBIFLY MET'MAP TEAM :

Programming & Development : Alexandra Zaïnal
Concept & Development : Baudouin d'Aumeries
Co-Development & Prog : Marc-Olivier Méhu
Technical & hardware support : Manuel Goepfert

Contact : metmap@orbifly.com




SOURCES & CREDITS :

   NOAA